createdAt,value
2022-12-03T00:01:19.423Z,26.13
2022-12-03T00:03:47.557Z,28.77
2022-12-03T00:06:17.640Z,25.67
2022-12-03T00:08:45.626Z,28.33
2022-12-03T00:11:13.502Z,25.38
2022-12-03T00:13:41.461Z,28.85
2022-12-03T00:16:09.571Z,24.77
2022-12-03T00:18:37.679Z,25.70
2022-12-03T00:21:05.885Z,24.80
2022-12-03T00:23:41.479Z,25.42
2022-12-03T00:26:10.218Z,25.75
2022-12-03T00:28:38.222Z,28.75
2022-12-03T00:31:06.630Z,24.58
2022-12-03T00:33:34.667Z,26.13
2022-12-03T00:36:02.707Z,25.27
2022-12-03T00:38:30.659Z,24.58
2022-12-03T00:40:59.873Z,26.23
2022-12-03T00:43:27.848Z,23.88
2022-12-03T00:45:55.754Z,24.83
2022-12-03T00:48:23.588Z,25.45
2022-12-03T00:50:51.559Z,26.90
2022-12-03T00:53:19.536Z,28.63
2022-12-03T00:55:47.507Z,26.58
2022-12-03T00:58:16.843Z,25.27
2022-12-03T01:00:44.707Z,24.13
2022-12-03T01:03:12.734Z,24.90
2022-12-03T01:05:40.733Z,27.55
2022-12-03T01:08:08.881Z,24.17
2022-12-03T01:10:36.849Z,24.55
2022-12-03T01:13:04.923Z,28.15
2022-12-03T01:15:34.313Z,25.67
2022-12-03T01:18:02.224Z,25.45
2022-12-03T01:20:30.210Z,27.05
2022-12-03T01:22:58.038Z,25.88
2022-12-03T01:25:26.015Z,26.63
2022-12-03T01:27:53.999Z,27.17
2022-12-03T01:30:21.981Z,25.70
2022-12-03T01:32:50.282Z,26.70
2022-12-03T01:35:18.317Z,26.40
2022-12-03T01:37:46.256Z,27.70
2022-12-03T01:40:23.948Z,26.58
2022-12-03T01:42:51.897Z,27.77
2022-12-03T01:45:24.819Z,28.60
2022-12-03T01:47:54.261Z,22.73
2022-12-03T01:50:28.348Z,28.92
2022-12-03T01:52:59.375Z,26.50
2022-12-03T01:55:27.593Z,29.95
2022-12-03T01:57:58.212Z,31.30
2022-12-03T02:00:29.337Z,29.38
2022-12-03T02:03:01.369Z,29.50
2022-12-03T02:05:31.751Z,27.20
2022-12-03T02:08:00.334Z,26.33
2022-12-03T02:10:31.657Z,26.35
2022-12-03T02:13:04.149Z,25.88
2022-12-03T02:15:32.156Z,25.58
2022-12-03T02:18:01.922Z,28.20
2022-12-03T02:20:32.302Z,26.25
2022-12-03T02:23:07.241Z,25.88
2022-12-03T02:25:37.391Z,26.23
2022-12-03T02:28:07.125Z,26.35
2022-12-03T02:30:35.637Z,24.70
2022-12-03T02:33:04.200Z,25.98
2022-12-03T02:35:35.385Z,24.80
2022-12-03T02:38:12.762Z,25.00
2022-12-03T02:40:43.468Z,26.67
2022-12-03T02:43:11.437Z,25.50
2022-12-03T02:45:43.162Z,25.50
2022-12-03T02:48:15.259Z,25.65
2022-12-03T02:50:49.383Z,23.58
2022-12-03T02:53:21.631Z,25.17
2022-12-03T02:55:53.143Z,19.43
2022-12-03T02:58:22.412Z,25.38
2022-12-03T03:00:51.491Z,25.27
2022-12-03T03:03:21.514Z,24.52
2022-12-03T03:05:51.390Z,23.98
2022-12-03T03:08:20.840Z,26.48
2022-12-03T03:10:49.123Z,25.00
2022-12-03T03:13:20.977Z,24.13
2022-12-03T03:15:49.433Z,24.40
2022-12-03T03:18:18.120Z,24.02
2022-12-03T03:20:46.471Z,22.85
2022-12-03T03:23:17.701Z,26.25
2022-12-03T03:25:48.716Z,25.73
2022-12-03T03:28:18.697Z,28.60
2022-12-03T03:30:47.526Z,27.38
2022-12-03T03:33:16.993Z,25.08
2022-12-03T03:35:46.922Z,26.15
2022-12-03T03:38:15.181Z,25.55
2022-12-03T03:40:44.190Z,25.77
2022-12-03T03:43:14.046Z,26.90
2022-12-03T03:45:44.251Z,25.40
2022-12-03T03:48:13.401Z,26.50
2022-12-03T03:50:42.083Z,25.45
2022-12-03T03:53:10.921Z,25.05
2022-12-03T03:55:39.615Z,26.65
2022-12-03T03:58:07.780Z,25.52
2022-12-03T04:00:37.397Z,25.75
2022-12-03T04:03:07.611Z,27.23
2022-12-03T04:05:35.645Z,27.30
2022-12-03T04:08:03.791Z,26.33
2022-12-03T04:10:49.198Z,29.02
2022-12-03T04:13:17.173Z,27.63
2022-12-03T04:15:45.195Z,26.40
2022-12-03T04:18:31.872Z,24.15
2022-12-03T04:21:13.669Z,26.65
2022-12-03T04:23:41.743Z,23.65
2022-12-03T04:26:27.243Z,25.00
2022-12-03T04:28:55.362Z,26.17
2022-12-03T04:31:40.896Z,26.45
2022-12-03T04:34:29.285Z,27.90
2022-12-03T04:36:57.355Z,28.20
2022-12-03T04:39:25.363Z,30.63
2022-12-03T04:41:53.336Z,25.60
2022-12-03T04:44:39.824Z,27.10
2022-12-03T04:47:10.444Z,29.58
2022-12-03T04:49:41.442Z,26.52
2022-12-03T04:52:10.223Z,27.25
2022-12-03T04:54:38.626Z,24.95
2022-12-03T04:57:07.736Z,27.08
2022-12-03T04:59:36.271Z,25.58
2022-12-03T05:02:05.348Z,28.17
2022-12-03T05:04:33.829Z,28.05
2022-12-03T05:07:03.326Z,25.27
2022-12-03T05:09:31.347Z,25.15
2022-12-03T05:11:59.286Z,25.27
2022-12-03T05:14:27.345Z,24.58
2022-12-03T05:16:55.461Z,29.13
2022-12-03T05:19:43.906Z,28.65
2022-12-03T05:22:12.186Z,23.27
2022-12-03T05:24:40.171Z,27.65
2022-12-03T05:27:08.322Z,28.65
2022-12-03T05:29:36.253Z,25.13
2022-12-03T05:32:04.369Z,27.52
2022-12-03T05:34:32.263Z,24.17
2022-12-03T05:37:00.245Z,25.42
2022-12-03T05:39:29.660Z,26.80
2022-12-03T05:42:14.880Z,27.48
2022-12-03T05:44:42.844Z,26.08
2022-12-03T05:47:10.781Z,25.92
2022-12-03T05:49:38.953Z,26.63
2022-12-03T05:52:07.044Z,25.77
2022-12-03T05:54:36.540Z,26.02
2022-12-03T05:57:04.624Z,24.65
2022-12-03T05:59:32.592Z,25.92
2022-12-03T06:02:00.495Z,25.92
2022-12-03T06:04:28.542Z,25.10
2022-12-03T06:06:56.433Z,28.20
2022-12-03T06:09:24.295Z,26.55
2022-12-03T06:11:54.235Z,25.88
2022-12-03T06:14:22.123Z,27.20
2022-12-03T06:16:50.209Z,26.73
2022-12-03T06:19:18.124Z,25.73
2022-12-03T06:21:45.969Z,25.45
2022-12-03T06:24:14.043Z,25.05
2022-12-03T06:26:41.999Z,26.63
2022-12-03T06:29:11.649Z,26.17
2022-12-03T06:31:39.677Z,27.27
2022-12-03T06:34:07.671Z,26.15
2022-12-03T06:36:35.604Z,27.95
2022-12-03T06:39:03.575Z,26.73
2022-12-03T06:41:31.468Z,27.85
2022-12-03T06:43:59.313Z,25.90
2022-12-03T06:46:28.533Z,26.00
2022-12-03T06:48:56.395Z,26.08
2022-12-03T06:51:24.229Z,25.83
2022-12-03T06:53:52.074Z,25.95
2022-12-03T06:56:22.295Z,26.48
2022-12-03T06:58:50.519Z,27.63
2022-12-03T07:01:18.493Z,26.52
2022-12-03T07:03:48.091Z,28.02
2022-12-03T07:06:16.277Z,26.27
2022-12-03T07:08:44.152Z,26.75
2022-12-03T07:11:31.180Z,26.95
2022-12-03T07:14:04.687Z,26.52
2022-12-03T07:16:33.898Z,26.98
2022-12-03T07:21:45.899Z,25.45
2022-12-03T07:24:14.129Z,26.50
2022-12-03T07:26:42.028Z,29.13
2022-12-03T07:29:09.929Z,26.88
2022-12-03T07:31:37.881Z,27.33
2022-12-03T07:34:05.755Z,26.77
2022-12-03T07:36:36.788Z,27.95
2022-12-03T07:39:04.812Z,29.85
2022-12-03T07:41:32.660Z,28.50
2022-12-03T07:44:00.506Z,27.65
2022-12-03T07:46:28.381Z,28.45
2022-12-03T07:48:56.268Z,27.58
2022-12-03T07:51:27.453Z,28.45
2022-12-03T07:53:59.806Z,27.08
2022-12-03T07:56:27.631Z,27.52
2022-12-03T07:58:55.479Z,27.35
2022-12-03T08:01:23.624Z,28.52
2022-12-03T08:03:51.495Z,27.42
2022-12-03T08:06:19.366Z,28.73
2022-12-03T08:08:47.235Z,25.83
2022-12-03T08:11:16.542Z,30.10
2022-12-03T08:13:44.462Z,28.40
2022-12-03T08:16:17.873Z,29.45
2022-12-03T08:18:46.689Z,28.40
2022-12-03T08:21:17.083Z,29.33
2022-12-03T08:23:45.568Z,30.33
2022-12-03T08:26:22.459Z,31.83
2022-12-03T08:28:50.581Z,30.58
2022-12-03T08:31:20.786Z,29.33
2022-12-03T08:33:50.529Z,30.05
2022-12-03T08:36:22.749Z,30.88
2022-12-03T08:38:53.005Z,32.07
2022-12-03T08:41:37.125Z,29.63
2022-12-03T08:44:21.540Z,29.25
2022-12-03T08:46:53.935Z,28.63
2022-12-03T08:49:23.269Z,29.50
2022-12-03T08:51:57.238Z,28.05
2022-12-03T08:54:26.770Z,30.92
2022-12-03T08:56:56.668Z,31.27
2022-12-03T08:59:30.652Z,29.23
2022-12-03T09:01:59.546Z,31.05
2022-12-03T09:04:36.858Z,31.35
2022-12-03T09:07:05.123Z,30.48
2022-12-03T09:09:34.552Z,31.38
2022-12-03T09:12:04.541Z,28.98
2022-12-03T09:14:32.399Z,29.63
2022-12-03T09:17:00.533Z,29.23
2022-12-03T09:19:31.004Z,30.92
2022-12-03T09:21:59.038Z,29.02
2022-12-03T09:24:26.946Z,29.23
2022-12-03T09:26:54.900Z,27.75
2022-12-03T09:29:24.900Z,26.65
2022-12-03T09:31:53.897Z,28.83
2022-12-03T09:34:21.821Z,28.73
2022-12-03T09:36:49.742Z,28.23
2022-12-03T09:39:17.757Z,28.23
2022-12-03T09:41:45.828Z,28.85
2022-12-03T09:44:17.905Z,28.80
2022-12-03T09:46:49.846Z,27.08
2022-12-03T09:49:20.087Z,28.98
2022-12-03T09:51:48.304Z,28.27
2022-12-03T09:54:24.781Z,27.77
2022-12-03T09:56:53.589Z,27.83
2022-12-03T09:59:22.744Z,27.75
2022-12-03T10:01:53.341Z,26.95
2022-12-03T10:04:21.325Z,28.75
2022-12-03T10:06:49.460Z,27.45
2022-12-03T10:09:27.747Z,26.42
2022-12-03T10:11:57.520Z,27.35
2022-12-03T10:14:25.630Z,27.27
2022-12-03T10:16:55.031Z,26.20
2022-12-03T10:19:27.584Z,26.73
2022-12-03T10:21:56.061Z,26.77
2022-12-03T10:24:28.864Z,26.80
2022-12-03T10:26:58.802Z,26.17
2022-12-03T10:29:33.539Z,28.00
2022-12-03T10:32:06.377Z,26.42
2022-12-03T10:34:36.409Z,25.63
2022-12-03T10:37:18.811Z,28.27
2022-12-03T10:39:59.189Z,25.77
2022-12-03T10:42:29.527Z,26.63
2022-12-03T10:45:16.717Z,27.58
2022-12-03T10:48:03.729Z,30.33
2022-12-03T10:50:32.281Z,28.17
2022-12-03T10:53:00.366Z,28.85
2022-12-03T10:55:30.105Z,29.23
2022-12-03T10:57:58.676Z,26.92
2022-12-03T11:00:26.652Z,30.27
2022-12-03T11:02:57.196Z,28.48
2022-12-03T11:05:28.290Z,30.13
2022-12-03T11:07:57.105Z,27.67
2022-12-03T11:10:25.331Z,26.45
2022-12-03T11:13:26.833Z,26.88
2022-12-03T11:15:55.278Z,26.65
2022-12-03T11:19:01.567Z,25.95
2022-12-03T11:21:30.001Z,27.02
2022-12-03T11:24:21.813Z,27.33
2022-12-03T11:27:16.155Z,26.70
2022-12-03T11:29:58.596Z,26.60
2022-12-03T11:33:06.168Z,28.37
2022-12-03T11:36:15.910Z,25.73
2022-12-03T11:38:52.846Z,26.52
2022-12-03T11:41:25.123Z,25.02
2022-12-03T11:44:31.667Z,24.25
2022-12-03T11:47:02.176Z,25.42
2022-12-03T11:49:33.916Z,25.10
2022-12-03T11:52:15.196Z,24.55
2022-12-03T11:54:43.332Z,27.25
2022-12-03T11:57:27.065Z,24.25
2022-12-03T11:59:59.747Z,25.00
2022-12-03T12:02:27.650Z,26.90
2022-12-03T12:04:55.593Z,24.02
2022-12-03T12:07:36.629Z,25.95
2022-12-03T12:10:05.855Z,25.63
2022-12-03T12:12:39.737Z,27.30
2022-12-03T12:15:35.420Z,25.58
2022-12-03T12:18:34.758Z,26.90
2022-12-03T12:21:35.693Z,26.42
2022-12-03T12:24:38.282Z,25.67
2022-12-03T12:27:08.903Z,25.83
2022-12-03T12:29:37.394Z,24.77
2022-12-03T12:32:15.094Z,25.98
2022-12-03T12:34:45.258Z,24.58
2022-12-03T12:37:15.218Z,24.77
2022-12-03T12:39:45.020Z,24.55
2022-12-03T12:42:40.126Z,26.98
2022-12-03T12:45:15.757Z,25.20
2022-12-03T12:47:51.662Z,27.05
2022-12-03T12:50:20.510Z,23.52
2022-12-03T12:52:56.169Z,25.17
2022-12-03T12:55:28.451Z,24.27
2022-12-03T12:58:01.086Z,23.90
2022-12-03T13:00:29.089Z,26.15
2022-12-03T13:03:00.914Z,27.05
2022-12-03T13:05:36.940Z,25.83
2022-12-03T13:08:14.978Z,23.23
2022-12-03T13:10:44.309Z,22.65
2022-12-03T13:13:31.439Z,23.52
2022-12-03T13:16:06.569Z,23.35
2022-12-03T13:18:47.450Z,23.83
2022-12-03T13:21:24.285Z,23.10
2022-12-03T13:23:54.808Z,23.63
2022-12-03T13:26:36.570Z,24.25
2022-12-03T13:29:14.708Z,24.23
2022-12-03T13:31:46.509Z,25.05
2022-12-03T13:34:20.213Z,27.67
2022-12-03T13:39:40.209Z,22.15
2022-12-03T13:42:41.450Z,24.88
2022-12-03T13:45:36.991Z,25.23
2022-12-03T13:48:16.404Z,26.08
2022-12-03T13:50:46.110Z,24.48
2022-12-03T13:53:20.900Z,25.25
2022-12-03T13:55:50.577Z,24.80
2022-12-03T13:58:19.901Z,25.13
2022-12-03T14:00:47.823Z,24.88
2022-12-03T14:03:16.636Z,25.40
2022-12-03T14:05:44.506Z,24.85
2022-12-03T14:08:12.553Z,25.35
2022-12-03T14:10:40.464Z,24.33
2022-12-03T14:13:08.432Z,25.50
2022-12-03T14:15:38.053Z,24.95
2022-12-03T14:18:05.994Z,24.73
2022-12-03T14:20:34.989Z,24.33
2022-12-03T14:23:02.850Z,24.65
2022-12-03T14:25:30.972Z,25.98
2022-12-03T14:28:00.731Z,24.05
2022-12-03T14:30:28.612Z,23.65
2022-12-03T14:32:57.853Z,23.50
2022-12-03T14:35:25.744Z,24.20
2022-12-03T14:37:53.668Z,23.85
2022-12-03T14:40:22.183Z,23.92
2022-12-03T14:42:50.422Z,27.50
2022-12-03T14:45:18.369Z,26.33
2022-12-03T14:47:46.298Z,22.55
2022-12-03T14:50:15.784Z,22.27
2022-12-03T14:52:43.798Z,21.65
2022-12-03T14:55:11.760Z,23.60
2022-12-03T14:57:39.770Z,23.38
2022-12-03T15:00:09.244Z,21.08
2022-12-03T15:02:37.144Z,25.15
2022-12-03T15:05:05.349Z,22.52
2022-12-03T15:07:34.696Z,20.77
2022-12-03T15:10:02.605Z,23.55
2022-12-03T15:12:31.546Z,23.65
2022-12-03T15:14:59.548Z,23.05
2022-12-03T15:17:31.544Z,24.30
2022-12-03T15:20:00.346Z,23.10
2022-12-03T15:22:28.226Z,21.63
2022-12-03T15:24:57.493Z,21.92
2022-12-03T15:27:25.357Z,25.15
2022-12-03T15:29:53.487Z,22.90
2022-12-03T15:32:21.510Z,24.55
2022-12-03T15:34:51.293Z,24.17
2022-12-03T15:37:19.265Z,23.65
2022-12-03T15:39:52.760Z,21.20
2022-12-03T15:42:22.060Z,22.63
2022-12-03T15:44:49.906Z,21.98
2022-12-03T15:47:17.739Z,23.83
2022-12-03T15:49:45.701Z,23.00
2022-12-03T15:52:13.724Z,22.98
2022-12-03T15:54:41.632Z,26.38
2022-12-03T15:57:09.755Z,23.95
2022-12-03T15:59:39.233Z,24.40
2022-12-03T16:02:07.687Z,27.08
2022-12-03T16:04:36.740Z,25.83
2022-12-03T16:07:04.794Z,24.50
2022-12-03T16:09:32.928Z,25.77
2022-12-03T16:12:00.789Z,25.65
2022-12-03T16:14:28.694Z,25.42
2022-12-03T16:16:58.849Z,25.60
2022-12-03T16:19:26.713Z,24.13
2022-12-03T16:21:54.531Z,24.40
2022-12-03T16:24:22.379Z,23.45
2022-12-03T16:26:50.285Z,28.40
2022-12-03T16:29:18.152Z,23.52
2022-12-03T16:31:46.109Z,23.30
2022-12-03T16:34:15.489Z,26.65
2022-12-03T16:36:43.402Z,24.05
2022-12-03T16:39:11.787Z,24.55
2022-12-03T16:41:39.889Z,24.02
2022-12-03T16:44:07.889Z,26.30
2022-12-03T16:46:35.752Z,24.60
2022-12-03T16:49:03.998Z,27.05
2022-12-03T16:51:33.245Z,24.92
2022-12-03T16:54:01.098Z,23.85
2022-12-03T16:56:28.931Z,25.02
2022-12-03T16:58:57.889Z,25.05
2022-12-03T17:01:25.749Z,25.50
2022-12-03T17:03:53.660Z,25.75
2022-12-03T17:06:21.531Z,23.92
2022-12-03T17:08:51.048Z,26.25
2022-12-03T17:11:19.249Z,26.38
2022-12-03T17:13:47.237Z,28.10
2022-12-03T17:16:15.764Z,28.67
2022-12-03T17:18:44.074Z,25.92
2022-12-03T17:21:12.053Z,28.05
2022-12-03T17:23:39.924Z,27.65
2022-12-03T17:26:09.186Z,27.60
2022-12-03T17:28:37.136Z,27.27
2022-12-03T17:31:05.189Z,25.75
2022-12-03T17:33:33.135Z,24.73
2022-12-03T17:36:01.296Z,26.15
2022-12-03T17:38:31.627Z,26.20
2022-12-03T17:41:03.505Z,25.10
2022-12-03T17:43:32.722Z,25.70
2022-12-03T17:46:00.702Z,24.52
2022-12-03T17:48:29.318Z,23.92
2022-12-03T17:50:58.081Z,25.45
2022-12-03T17:53:26.322Z,26.67
2022-12-03T17:55:54.280Z,25.02
2022-12-03T17:58:22.084Z,25.33
2022-12-03T18:00:51.357Z,26.20
2022-12-03T18:03:19.218Z,24.58
2022-12-03T18:05:47.050Z,24.80
2022-12-03T18:08:15.013Z,24.80
2022-12-03T18:10:42.961Z,26.20
2022-12-03T18:13:10.913Z,25.45
2022-12-03T18:15:38.937Z,26.67
2022-12-03T18:18:08.444Z,25.85
2022-12-03T18:20:36.447Z,25.50
2022-12-03T18:23:04.527Z,25.20
2022-12-03T18:25:32.513Z,24.00
2022-12-03T18:28:00.390Z,25.63
2022-12-03T18:30:28.246Z,25.08
2022-12-03T18:32:56.260Z,26.25
2022-12-03T18:35:25.495Z,24.73
2022-12-03T18:37:53.401Z,24.90
2022-12-03T18:40:24.458Z,26.42
2022-12-03T18:42:54.051Z,28.52
2022-12-03T18:45:21.959Z,32.40
2022-12-03T18:47:50.200Z,30.38
2022-12-03T18:50:18.559Z,29.92
2022-12-03T18:52:47.776Z,29.50
2022-12-03T18:55:19.404Z,29.80
2022-12-03T18:57:47.268Z,30.13
2022-12-03T19:00:17.222Z,28.10
2022-12-03T19:03:02.639Z,27.38
2022-12-03T19:05:31.816Z,27.73
2022-12-03T19:08:01.552Z,27.55
2022-12-03T19:10:29.497Z,27.20
2022-12-03T19:12:57.415Z,27.77
2022-12-03T19:15:25.329Z,25.85
2022-12-03T19:17:53.198Z,27.95
2022-12-03T19:20:21.073Z,26.83
2022-12-03T19:22:48.882Z,29.38
2022-12-03T19:25:18.241Z,27.15
2022-12-03T19:27:46.107Z,28.98
2022-12-03T19:30:14.482Z,26.40
2022-12-03T19:32:42.325Z,27.75
2022-12-03T19:35:11.340Z,26.55
2022-12-03T19:37:39.355Z,29.45
2022-12-03T19:40:10.256Z,28.63
2022-12-03T19:42:40.324Z,29.98
2022-12-03T19:45:09.667Z,28.35
2022-12-03T19:47:38.418Z,28.33
2022-12-03T19:50:08.422Z,28.92
2022-12-03T19:52:37.412Z,30.77
2022-12-03T19:55:06.435Z,28.80
2022-12-03T19:57:34.460Z,29.27
2022-12-03T20:00:03.868Z,29.05
2022-12-03T20:02:40.336Z,29.02
2022-12-03T20:05:08.693Z,29.48
2022-12-03T20:07:36.739Z,30.17
2022-12-03T20:10:06.786Z,28.80
2022-12-03T20:12:34.679Z,33.67
2022-12-03T20:15:03.992Z,29.67
2022-12-03T20:17:32.073Z,26.05
2022-12-03T20:20:00.035Z,28.77
2022-12-03T20:22:28.003Z,30.08
2022-12-03T20:24:56.059Z,27.52
2022-12-03T20:27:23.979Z,28.00
2022-12-03T20:29:52.089Z,29.95
2022-12-03T20:32:21.531Z,30.45
2022-12-03T20:34:50.103Z,29.73
2022-12-03T20:37:18.561Z,29.38
2022-12-03T20:39:46.556Z,28.83
2022-12-03T20:42:14.538Z,28.42
2022-12-03T20:44:42.495Z,28.63
2022-12-03T20:47:10.404Z,28.75
2022-12-03T20:49:40.253Z,30.30
2022-12-03T20:52:08.369Z,29.02
2022-12-03T20:54:36.275Z,29.65
2022-12-03T20:57:04.429Z,32.35
2022-12-03T20:59:32.838Z,29.70
2022-12-03T21:02:00.921Z,34.90
2022-12-03T21:04:29.015Z,29.70
2022-12-03T21:06:58.393Z,29.52
2022-12-03T21:09:26.411Z,32.28
2022-12-03T21:11:54.421Z,30.02
2022-12-03T21:14:22.401Z,29.40
2022-12-03T21:19:39.192Z,31.85
2022-12-03T21:22:08.760Z,30.40
2022-12-03T21:24:36.803Z,28.73
2022-12-03T21:27:04.903Z,29.23
2022-12-03T21:29:32.898Z,30.73
2022-12-03T21:32:00.780Z,32.55
2022-12-03T21:34:34.378Z,32.67
2022-12-03T21:37:04.196Z,31.75
2022-12-03T21:39:33.706Z,30.45
2022-12-03T21:42:35.094Z,29.58
2022-12-03T21:44:49.910Z,31.48
2022-12-03T21:47:17.967Z,31.92
2022-12-03T21:49:45.943Z,31.85
2022-12-03T21:52:14.098Z,31.00
2022-12-03T21:54:43.386Z,30.45
2022-12-03T21:57:11.439Z,30.65
2022-12-03T21:59:39.375Z,31.55
2022-12-03T22:02:07.752Z,31.67
2022-12-03T22:04:35.782Z,30.98
2022-12-03T22:07:04.368Z,32.00
2022-12-03T22:09:33.305Z,31.42
2022-12-03T22:12:02.659Z,31.88
2022-12-03T22:14:31.381Z,31.30
2022-12-03T22:16:59.433Z,30.15
2022-12-03T22:19:28.001Z,30.77
2022-12-03T22:21:55.893Z,29.38
2022-12-03T22:24:24.054Z,30.73
2022-12-03T22:26:53.589Z,31.65
2022-12-03T22:29:23.065Z,28.30
2022-12-03T22:31:50.985Z,31.33
2022-12-03T22:34:18.887Z,30.05
2022-12-03T22:36:47.017Z,31.92
2022-12-03T22:39:15.003Z,31.20
2022-12-03T22:41:42.899Z,30.88
2022-12-03T22:44:10.846Z,29.42
2022-12-03T22:46:40.424Z,29.75
2022-12-03T22:49:08.419Z,30.50
2022-12-03T22:51:36.879Z,31.75
2022-12-03T22:54:05.566Z,31.10
2022-12-03T22:56:34.061Z,31.17
2022-12-03T22:59:01.984Z,30.98
2022-12-03T23:01:32.086Z,31.42
2022-12-03T23:04:01.985Z,33.10
2022-12-03T23:06:31.217Z,33.47
2022-12-03T23:09:00.202Z,29.88
2022-12-03T23:11:29.208Z,31.13
2022-12-03T23:13:59.049Z,32.97
2022-12-03T23:16:30.264Z,31.85
2022-12-03T23:18:58.898Z,32.25
2022-12-03T23:21:30.739Z,31.25
2022-12-03T23:23:59.046Z,32.28
2022-12-03T23:26:27.188Z,31.65
2022-12-03T23:28:55.652Z,31.48
2022-12-03T23:31:26.371Z,31.05
2022-12-03T23:33:54.968Z,32.25
2022-12-03T23:36:24.546Z,31.38
2022-12-03T23:38:53.898Z,31.58
2022-12-03T23:41:23.328Z,31.25
2022-12-03T23:43:51.595Z,31.50
2022-12-03T23:46:22.206Z,31.23
2022-12-03T23:48:50.968Z,30.40
2022-12-03T23:51:22.212Z,31.33
2022-12-03T23:53:50.507Z,31.95
2022-12-03T23:56:24.330Z,31.02
2022-12-03T23:58:52.573Z,32.63
